Time;durP1;ratioP1;P1;durP2;ratioP2;P2;SDS_P1;SDS_P2;PMS_P1;PMS_P2;Temp;Humidity;BMP_temperature;BMP_pressure;BME280_temperature;BME280_humidity;BME280_pressure;Samples;Min_cycle;Max_cycle;Signal;HPM_P1;HPM_P2
2022/10/03 00:00:10;;;;;;;1.80;1.00;;;;;;;20.21;39.70;98676.22;5050996;28;20120;-80
2022/10/03 00:03:13;;;;;;;1.00;0.60;;;;;;;20.21;39.59;98663.78;5034350;28;20043;-80
2022/10/03 00:06:05;;;;;;;1.90;0.82;;;;;;;20.11;39.52;98657.91;5050997;28;20110;-80
2022/10/03 00:08:48;;;;;;;3.35;0.90;;;;;;;20.16;39.76;98674.13;5036131;28;20041;-80
2022/10/03 00:11:29;;;;;;;2.80;0.95;;;;;;;20.17;39.41;98664.31;5034516;28;20033;-80
2022/10/03 00:13:59;;;;;;;1.50;0.80;;;;;;;20.11;39.67;98659.75;5057307;28;20044;-80
2022/10/03 00:16:46;;;;;;;1.58;0.88;;;;;;;20.11;39.61;98662.41;5039029;28;20140;-81
2022/10/03 00:19:35;;;;;;;1.30;0.75;;;;;;;20.11;39.63;98659.75;5053238;28;20025;-80
2022/10/03 00:22:23;;;;;;;3.38;0.98;;;;;;;20.08;39.81;98644.22;5052811;28;20029;-80
2022/10/03 00:24:55;;;;;;;3.33;0.90;;;;;;;20.04;39.96;98647.22;5052668;28;20021;-80
2022/10/03 00:27:37;;;;;;;2.42;0.70;;;;;;;19.99;40.00;98644.28;5036852;28;20037;-80
2022/10/03 00:30:15;;;;;;;1.83;0.70;;;;;;;20.02;39.96;98649.22;5055446;28;20108;-81
2022/10/03 00:32:53;;;;;;;1.33;0.70;;;;;;;20.03;39.78;98650.03;5071309;28;20132;-81
2022/10/03 00:35:38;;;;;;;1.30;0.70;;;;;;;20.01;39.99;98650.22;5073071;28;20025;-81
2022/10/03 00:38:27;;;;;;;3.45;0.88;;;;;;;20.00;39.64;98651.25;5072234;28;20028;-81
2022/10/03 00:41:27;;;;;;;1.05;0.65;;;;;;;20.04;40.07;98655.16;5071575;28;20024;-81
2022/10/03 00:44:05;;;;;;;1.40;0.90;;;;;;;19.97;40.05;98642.81;5070910;28;20052;-81
2022/10/03 00:46:39;;;;;;;1.50;0.80;;;;;;;20.01;40.05;98660.81;5070780;28;20024;-82
2022/10/03 00:49:05;;;;;;;1.35;0.80;;;;;;;20.00;40.31;98661.84;5071914;28;20099;-81
2022/10/03 00:51:49;;;;;;;1.48;0.90;;;;;;;20.02;39.99;98649.22;5072569;28;20480;-84
2022/10/03 00:54:44;;;;;;;3.75;0.85;;;;;;;20.03;39.85;98650.84;5072161;28;20033;-81
2022/10/03 00:57:23;;;;;;;1.95;0.70;;;;;;;20.04;40.11;98638.44;5072200;28;20044;-81
2022/10/03 01:00:15;;;;;;;1.15;0.63;;;;;;;20.00;39.87;98638.00;5071530;28;20090;-81
2022/10/03 01:02:50;;;;;;;1.70;0.90;;;;;;;19.95;39.87;98634.22;5053688;28;20025;-80
2022/10/03 01:05:44;;;;;;;0.70;0.55;;;;;;;19.93;40.21;98641.53;5072462;28;20036;-80
2022/10/03 01:08:15;;;;;;;0.82;0.60;;;;;;;19.93;40.23;98650.31;5067998;28;20062;-80
2022/10/03 01:10:59;;;;;;;1.15;0.80;;;;;;;19.94;40.27;98653.75;5072265;28;20390;-79
2022/10/03 01:13:36;;;;;;;1.17;0.63;;;;;;;19.91;40.18;98651.47;5072197;28;20491;-80
2022/10/03 01:16:09;;;;;;;1.05;0.60;;;;;;;19.88;40.16;98647.38;5071651;28;20511;-80
2022/10/03 01:18:53;;;;;;;3.08;0.70;;;;;;;19.88;40.27;98642.06;5072245;28;20166;-78
2022/10/03 01:21:30;;;;;;;1.52;0.70;;;;;;;19.88;40.15;98636.78;5070688;28;20033;-83
2022/10/03 01:24:17;;;;;;;1.77;0.90;;;;;;;19.89;40.29;98641.06;5070976;28;20043;-83
2022/10/03 01:26:55;;;;;;;1.08;0.70;;;;;;;19.82;40.45;98640.13;5071696;28;20025;-83
2022/10/03 01:32:17;;;;;;;1.37;0.80;;;;;;;19.70;40.60;98629.09;5071979;28;20337;-84
2022/10/03 01:35:27;;;;;;;1.30;0.70;;;;;;;19.71;40.45;98628.13;5055196;28;20059;-83
2022/10/03 01:37:56;;;;;;;1.02;0.80;;;;;;;19.67;40.57;98626.81;5052620;28;20543;-84
2022/10/03 01:40:34;;;;;;;2.40;0.80;;;;;;;19.65;40.75;98634.94;5069535;28;20028;-87
2022/10/03 01:43:05;;;;;;;2.03;0.70;;;;;;;19.68;40.44;98631.94;5036665;28;20040;-86
2022/10/03 01:45:46;;;;;;;1.48;0.70;;;;;;;19.64;40.48;98625.38;5053146;28;20170;-86
2022/10/03 01:48:37;;;;;;;0.95;0.70;;;;;;;19.59;40.64;98625.06;5052506;28;20039;-86
2022/10/03 01:51:29;;;;;;;2.47;0.80;;;;;;;19.56;40.63;98608.72;4954927;28;20035;-85
2022/10/03 01:54:00;;;;;;;1.33;0.70;;;;;;;19.61;40.78;98612.47;4970554;28;20039;-86
2022/10/03 01:56:38;;;;;;;1.35;0.70;;;;;;;19.62;40.99;98608.81;4971138;28;20463;-86
2022/10/03 01:59:17;;;;;;;0.82;0.60;;;;;;;19.67;40.92;98617.06;4939622;28;20035;-83
2022/10/03 02:01:54;;;;;;;1.00;0.70;;;;;;;19.65;40.65;98620.88;4939309;28;20043;-82
2022/10/03 02:04:38;;;;;;;1.45;0.90;;;;;;;19.63;40.50;98629.00;4955516;28;20029;-81
2022/10/03 02:07:11;;;;;;;0.93;0.65;;;;;;;19.63;40.64;98618.41;4954514;28;20046;-82
2022/10/03 02:10:05;;;;;;;1.70;0.70;;;;;;;19.64;40.70;98622.72;4954970;28;20142;-81
2022/10/03 02:12:38;;;;;;;1.00;0.70;;;;;;;19.60;40.67;98599.41;4971342;28;20613;-81
2022/10/03 02:15:20;;;;;;;0.85;0.50;;;;;;;19.55;40.67;98601.78;4974045;28;20038;-81
2022/10/03 02:17:54;;;;;;;2.03;0.98;;;;;;;19.57;40.74;98605.06;4943013;28;20043;-80
2022/10/03 02:20:42;;;;;;;1.05;0.70;;;;;;;19.53;40.60;98610.72;4942629;28;20042;-81
2022/10/03 02:23:24;;;;;;;1.33;0.80;;;;;;;19.55;40.68;98607.88;4974026;28;20150;-81
2022/10/03 02:26:13;;;;;;;2.25;0.70;;;;;;;19.56;40.59;98614.00;4957624;28;20454;-82
2022/10/03 02:29:16;;;;;;;1.02;0.75;;;;;;;19.59;40.59;98603.06;5032305;28;20542;-80
2022/10/03 02:32:12;;;;;;;1.20;0.70;;;;;;;19.60;40.70;98604.72;5053390;28;20082;-80
2022/10/03 02:35:19;;;;;;;0.95;0.65;;;;;;;19.62;40.82;98615.94;5053692;28;20029;-81
2022/10/03 02:38:23;;;;;;;1.30;0.80;;;;;;;19.62;40.84;98624.69;5040840;28;20029;-80
2022/10/03 02:41:22;;;;;;;1.42;0.70;;;;;;;19.53;41.07;98604.59;5061123;28;20472;-81
2022/10/03 02:44:26;;;;;;;0.95;0.70;;;;;;;19.58;40.97;98617.31;5070489;28;20044;-82
2022/10/03 02:47:26;;;;;;;0.80;0.60;;;;;;;19.60;41.02;98608.19;5068906;28;20458;-81
2022/10/03 02:49:54;;;;;;;0.95;0.63;;;;;;;19.61;41.03;98615.13;5073240;28;20037;-81
2022/10/03 02:52:29;;;;;;;1.23;0.70;;;;;;;19.61;40.80;98614.28;5074365;28;20063;-81
2022/10/03 02:55:04;;;;;;;1.17;0.68;;;;;;;19.64;40.86;98617.41;5073569;28;20548;-80
2022/10/03 02:57:48;;;;;;;2.25;0.68;;;;;;;19.63;40.81;98605.16;5074525;28;20035;-81
2022/10/03 03:00:21;;;;;;;1.88;0.70;;;;;;;19.62;41.09;98602.69;5073473;28;20028;-82
2022/10/03 03:03:29;;;;;;;3.08;0.60;;;;;;;19.59;41.05;98611.00;5039831;28;20031;-83
2022/10/03 03:06:03;;;;;;;1.45;0.70;;;;;;;19.53;41.20;98609.91;5055594;28;20036;-85
2022/10/03 03:08:50;;;;;;;1.90;0.70;;;;;;;19.50;41.03;98603.13;5072139;28;20033;-88
2022/10/03 03:11:38;;;;;;;1.77;0.60;;;;;;;19.48;41.16;98599.84;5055616;28;20028;-89
2022/10/03 03:14:25;;;;;;;0.93;0.70;;;;;;;19.50;41.14;98597.03;5057261;28;20028;-88
2022/10/03 03:17:05;;;;;;;2.35;0.73;;;;;;;19.48;41.07;98588.41;5072722;28;20048;-87
2022/10/03 03:20:09;;;;;;;1.20;0.80;;;;;;;19.44;41.18;98587.94;5072426;28;20109;-86
2022/10/03 03:23:23;;;;;;;1.60;1.00;;;;;;;19.41;41.39;98593.59;5071772;28;20040;-86
2022/10/03 03:25:57;;;;;;;0.93;0.70;;;;;;;19.37;41.39;98604.72;4961337;28;20027;-84
2022/10/03 03:28:45;;;;;;;2.25;1.13;;;;;;;19.36;41.63;98598.59;4972773;28;20033;-87
2022/10/03 03:31:17;;;;;;;0.77;0.60;;;;;;;19.36;41.35;98582.72;4989268;28;20038;-86
2022/10/03 03:34:01;;;;;;;4.93;0.90;;;;;;;19.39;41.23;98592.13;4990619;28;20054;-86
2022/10/03 03:36:42;;;;;;;1.80;0.90;;;;;;;19.38;41.28;98590.50;4974451;28;20474;-84
2022/10/03 03:39:38;;;;;;;1.58;0.73;;;;;;;19.35;41.42;98586.38;4989389;28;20034;-84
2022/10/03 03:42:35;;;;;;;2.28;0.80;;;;;;;19.34;41.32;98580.25;4972830;28;20081;-84
2022/10/03 03:45:37;;;;;;;1.30;0.73;;;;;;;19.32;41.13;98566.38;4972525;28;20105;-84
2022/10/03 03:48:21;;;;;;;2.20;0.80;;;;;;;19.28;41.20;98558.97;4973828;28;20470;-86
2022/10/03 03:50:58;;;;;;;1.48;1.00;;;;;;;19.25;41.36;98552.22;4973314;28;20096;-86
2022/10/03 03:53:52;;;;;;;3.60;0.93;;;;;;;19.27;41.20;98559.97;4973063;28;20034;-85
2022/10/03 03:56:23;;;;;;;0.90;0.70;;;;;;;19.26;41.22;98555.66;5011321;28;20033;-85
2022/10/03 03:59:09;;;;;;;2.05;0.80;;;;;;;19.21;41.26;98536.84;5054197;28;20460;-86
2022/10/03 04:02:11;;;;;;;1.75;0.80;;;;;;;19.22;41.46;98536.69;5054542;28;20111;-86
2022/10/03 04:05:01;;;;;;;1.42;0.90;;;;;;;19.21;41.33;98524.44;5069683;28;20036;-87
2022/10/03 04:07:51;;;;;;;1.80;0.85;;;;;;;19.22;41.52;98525.28;5055617;28;20029;-88
2022/10/03 04:10:20;;;;;;;3.47;1.00;;;;;;;19.28;41.59;98527.22;5054138;28;20086;-85
2022/10/03 04:13:04;;;;;;;3.28;0.90;;;;;;;19.30;41.40;98512.78;5053720;28;20020;-73
2022/10/03 04:15:35;;;;;;;1.42;0.90;;;;;;;19.27;41.28;98521.09;5052790;28;20132;-84
2022/10/03 04:21:34;;;;;;;2.90;0.82;;;;;;;19.23;41.18;98527.75;5062216;28;20419;-84
2022/10/03 04:24:30;;;;;;;2.80;0.98;;;;;;;19.48;40.62;98528.38;5062815;28;20039;-85
2022/10/03 04:27:47;;;;;;;1.88;0.73;;;;;;;20.29;38.91;98529.50;5062631;28;20028;-87
2022/10/03 04:30:39;;;;;;;1.17;0.50;;;;;;;20.99;37.51;98535.25;5045158;28;20064;-84
2022/10/03 04:33:07;;;;;;;2.97;0.60;;;;;;;21.65;36.23;98530.53;5033774;28;20538;-82
2022/10/03 04:36:12;;;;;;;0.90;0.60;;;;;;;22.28;34.93;98526.16;5033499;28;20514;-81
2022/10/03 04:38:59;;;;;;;0.98;0.63;;;;;;;23.04;33.46;98523.38;5034028;28;20037;-81
2022/10/03 04:41:48;;;;;;;0.65;0.40;;;;;;;23.70;31.66;98521.75;5017814;28;20037;-82
2022/10/03 04:44:44;;;;;;;1.55;0.32;;;;;;;24.31;30.73;98517.13;5018324;28;20037;-82
2022/10/03 04:47:17;;;;;;;0.80;0.55;;;;;;;24.88;29.43;98523.41;5041259;28;20036;-82
2022/10/03 04:49:52;;;;;;;4.03;0.73;;;;;;;25.38;28.59;98527.19;5024795;28;20049;-81
2022/10/03 04:52:38;;;;;;;3.63;0.55;;;;;;;25.90;27.74;98518.91;5047651;28;20488;-80
2022/10/03 04:55:26;;;;;;;2.40;0.40;;;;;;;26.47;27.04;98535.56;5035723;28;20463;-79
2022/10/03 04:57:55;;;;;;;0.80;0.40;;;;;;;27.10;27.14;98536.16;5036774;28;20051;-68
2022/10/03 05:00:22;;;;;;;2.08;0.55;;;;;;;27.86;27.63;98540.91;5060106;28;20083;-67
2022/10/03 05:03:12;;;;;;;10.10;0.80;;;;;;;28.50;26.02;98532.91;5026849;28;20021;-68
2022/10/03 05:05:46;;;;;;;2.03;0.60;;;;;;;28.65;23.30;98530.50;5051765;28;20052;-66
2022/10/03 05:08:32;;;;;;;3.08;0.60;;;;;;;28.67;23.63;98539.16;5060006;28;20033;-72
2022/10/03 05:11:06;;;;;;;2.38;0.50;;;;;;;28.69;24.01;98537.06;5058818;28;20438;-69
2022/10/03 05:13:50;;;;;;;4.25;1.10;;;;;;;28.63;24.23;98534.50;5060384;28;20024;-67
2022/10/03 05:16:30;;;;;;;6.72;1.30;;;;;;;28.66;24.27;98536.72;5042910;28;20068;-68
2022/10/03 05:19:07;;;;;;;3.88;1.17;;;;;;;28.77;23.27;98549.28;5060365;28;20067;-76
2022/10/03 05:21:44;;;;;;;4.90;1.10;;;;;;;28.75;23.36;98542.50;5058836;28;20393;-76
2022/10/03 05:24:14;;;;;;;4.43;1.23;;;;;;;28.48;23.32;98553.78;5028425;28;20307;-77
2022/10/03 05:26:52;;;;;;;2.60;1.40;;;;;;;27.06;25.19;98540.38;5058335;28;20488;-79
2022/10/03 05:29:38;;;;;;;3.05;1.27;;;;;;;26.20;26.40;98551.09;5061910;28;20029;-67
2022/10/03 05:32:19;;;;;;;9.50;1.70;;;;;;;25.72;27.52;98549.91;5059149;28;20049;-69
2022/10/03 05:35:19;;;;;;;3.40;1.60;;;;;;;25.50;27.80;98541.47;5058259;28;20035;-69
2022/10/03 05:37:47;;;;;;;8.38;2.05;;;;;;;25.78;27.85;98548.25;5042705;28;20124;-68
2022/10/03 05:40:25;;;;;;;4.65;2.17;;;;;;;26.73;26.25;98555.03;5058076;28;20049;-67
2022/10/03 05:42:54;;;;;;;4.10;1.60;;;;;;;26.46;26.15;98550.00;5058892;28;20049;-69
2022/10/03 05:45:38;;;;;;;4.20;1.67;;;;;;;25.90;27.12;98553.66;5062501;28;20083;-68
2022/10/03 05:48:25;;;;;;;5.03;1.50;;;;;;;25.39;27.68;98544.88;5061648;28;20028;-70
2022/10/03 05:51:12;;;;;;;4.05;1.55;;;;;;;24.87;29.05;98563.66;5063287;28;20051;-68
2022/10/03 05:54:02;;;;;;;6.55;1.67;;;;;;;24.71;31.21;98571.13;5063447;28;20126;-72
2022/10/03 05:56:52;;;;;;;13.10;2.40;;;;;;;24.62;29.99;98577.78;5064151;28;20096;-70
2022/10/03 05:59:20;;;;;;;19.40;2.70;;;;;;;24.44;29.91;98575.75;5063304;28;20021;-70
2022/10/03 06:01:51;;;;;;;19.10;3.40;;;;;;;24.29;30.08;98578.69;5062169;28;20040;-69
2022/10/03 06:04:39;;;;;;;13.35;3.85;;;;;;;24.12;30.21;98564.16;5063282;28;20020;-72
2022/10/03 06:07:04;;;;;;;17.98;4.40;;;;;;;24.04;30.41;98570.53;5064168;28;20033;-69
2022/10/03 06:09:50;;;;;;;18.60;4.80;;;;;;;23.96;30.37;98568.91;5062052;28;20473;-70
2022/10/03 06:12:29;;;;;;;23.27;5.30;;;;;;;24.02;30.71;98575.22;5048215;28;20060;-71
2022/10/03 06:15:07;;;;;;;29.88;6.45;;;;;;;24.02;30.33;98572.56;5061481;28;20787;-74
2022/10/03 06:17:57;;;;;;;30.42;3.63;;;;;;;24.10;32.09;98569.69;5062940;28;20419;-72
2022/10/03 06:21:00;;;;;;;26.85;4.97;;;;;;;24.14;34.23;98572.75;5062604;28;20032;-67
2022/10/03 06:24:16;;;;;;;13.77;4.05;;;;;;;24.27;32.41;98580.72;5062593;28;20025;-70
2022/10/03 06:27:11;;;;;;;18.52;5.15;;;;;;;24.33;31.10;98579.88;5062042;28;20098;-71
2022/10/03 06:29:58;;;;;;;23.30;5.65;;;;;;;24.68;30.00;98566.22;5042014;28;20144;-74
2022/10/03 06:32:33;;;;;;;24.25;5.80;;;;;;;24.63;30.09;98563.38;5024844;28;20029;-71
2022/10/03 06:35:10;;;;;;;19.50;5.65;;;;;;;24.65;29.50;98552.50;5061872;28;20571;-71
2022/10/03 06:37:48;;;;;;;15.00;5.70;;;;;;;24.79;29.70;98559.41;5043643;28;20025;-71
2022/10/03 06:40:38;;;;;;;23.67;5.82;;;;;;;24.85;29.81;98553.19;5026612;28;20287;-70
2022/10/03 06:43:30;;;;;;;25.48;6.32;;;;;;;25.17;29.30;98563.09;5061094;28;20099;-74
2022/10/03 06:46:44;;;;;;;21.75;6.55;;;;;;;25.10;28.99;98552.44;5043259;28;20116;-72
2022/10/03 06:49:41;;;;;;;28.33;7.47;;;;;;;25.12;28.76;98557.56;4979924;28;20078;-72
2022/10/03 06:52:37;;;;;;;20.73;6.45;;;;;;;25.58;27.88;98559.09;4952635;28;20410;-73
2022/10/03 06:55:24;;;;;;;24.60;6.22;;;;;;;26.83;26.40;98555.28;4964057;28;20029;-76
2022/10/03 06:58:26;;;;;;;22.20;5.53;;;;;;;28.08;24.68;98559.94;4979945;28;20039;-72
2022/10/03 07:00:57;;;;;;;23.95;5.18;;;;;;;29.19;23.31;98557.06;4965943;28;20211;-72
2022/10/03 07:03:23;;;;;;;12.77;4.68;;;;;;;30.17;22.08;98561.19;4983758;28;20042;-69
2022/10/03 07:06:07;;;;;;;16.98;4.30;;;;;;;31.02;21.35;98569.75;4999287;28;20601;-70
2022/10/03 07:09:00;;;;;;;16.35;4.90;;;;;;;31.89;20.03;98563.44;4980440;28;20141;-69
2022/10/03 07:11:34;;;;;;;12.90;4.45;;;;;;;32.59;19.25;98572.19;4984441;28;20137;-70
2022/10/03 07:14:24;;;;;;;9.98;3.30;;;;;;;33.15;18.76;98570.69;4983455;28;20039;-70
2022/10/03 07:16:58;;;;;;;9.05;3.60;;;;;;;33.61;18.45;98569.91;4984330;28;20137;-69
2022/10/03 07:19:25;;;;;;;14.48;3.55;;;;;;;33.92;18.03;98570.66;5001007;28;20030;-70
2022/10/03 07:22:27;;;;;;;8.47;3.87;;;;;;;34.25;18.57;98571.97;4996249;28;20038;-71
2022/10/03 07:25:24;;;;;;;12.57;3.20;;;;;;;34.54;17.04;98576.72;5060710;28;20256;-70
2022/10/03 07:28:27;;;;;;;8.35;3.67;;;;;;;34.84;17.41;98566.84;5044388;28;20721;-69
2022/10/03 07:31:17;;;;;;;11.80;3.53;;;;;;;35.05;17.01;98562.06;5057663;28;20033;-69
2022/10/03 07:34:04;;;;;;;10.80;3.38;;;;;;;35.27;17.32;98560.88;5058032;28;20060;-69
2022/10/03 07:39:44;;;;;;;12.70;3.20;;;;;;;35.52;17.32;98559.84;5052009;28;19961;-70
2022/10/03 07:42:21;;;;;;;;;;;;;;;35.57;17.09;98558.97;5041680;28;20100;-70
2022/10/03 07:45:05;;;;;;;9.10;3.38;;;;;;;35.67;16.56;98556.94;5060382;28;19962;-69
2022/10/03 07:47:50;;;;;;;12.60;3.35;;;;;;;35.85;16.38;98552.75;5060759;28;20033;-70
2022/10/03 07:50:24;;;;;;;9.50;3.63;;;;;;;36.21;17.06;98546.91;5041599;28;20814;-70
2022/10/03 07:53:15;;;;;;;13.30;2.20;;;;;;;35.72;14.95;98542.53;5043808;28;20841;-69
2022/10/03 07:56:02;;;;;;;8.57;1.48;;;;;;;34.14;16.00;98545.97;5045642;28;20059;-69
2022/10/03 07:58:34;;;;;;;9.07;1.98;;;;;;;33.27;19.19;98548.81;5059442;28;20148;-69
2022/10/03 08:01:18;;;;;;;12.27;1.60;;;;;;;32.30;19.24;98554.78;5032618;28;20025;-70
2022/10/03 08:04:02;;;;;;;9.98;2.03;;;;;;;31.71;20.68;98553.91;5059608;28;20040;-70
2022/10/03 08:06:42;;;;;;;3.80;1.48;;;;;;;30.97;20.26;98550.03;5061712;28;20545;-70
2022/10/03 08:09:26;;;;;;;7.18;1.30;;;;;;;30.22;21.10;98557.75;5060766;28;20420;-70
2022/10/03 08:12:10;;;;;;;9.05;1.85;;;;;;;29.76;21.83;98556.06;5060945;28;20112;-71
2022/10/03 08:14:47;;;;;;;12.63;1.63;;;;;;;29.37;23.29;98555.19;5060277;28;20480;-69
2022/10/03 08:17:34;;;;;;;6.75;1.35;;;;;;;28.87;23.45;98562.06;5060292;28;20049;-68
2022/10/03 08:20:22;;;;;;;8.88;1.23;;;;;;;28.48;22.77;98564.53;5060800;28;20412;-68
2022/10/03 08:22:59;;;;;;;7.15;1.50;;;;;;;28.09;23.82;98558.91;5060813;28;20040;-67
2022/10/03 08:25:49;;;;;;;8.65;1.67;;;;;;;27.84;23.96;98570.66;5059821;28;20427;-69
2022/10/03 08:28:27;;;;;;;10.82;1.45;;;;;;;27.62;25.59;98568.53;5060075;28;20021;-69
2022/10/03 08:31:08;;;;;;;;;;;;;;;27.34;25.73;98563.03;5060591;28;20555;-69
2022/10/03 08:33:52;;;;;;;6.18;1.50;;;;;;;27.17;26.28;98569.03;5057972;28;20003;-67
2022/10/03 08:36:33;;;;;;;5.80;1.40;;;;;;;27.05;26.49;98563.63;5060332;28;20044;-69
2022/10/03 08:39:18;;;;;;;7.20;1.30;;;;;;;26.86;26.68;98570.09;5060436;28;20153;-67
2022/10/03 08:42:02;;;;;;;11.48;1.30;;;;;;;26.69;25.62;98561.88;5060972;28;20103;-69
2022/10/03 08:45:12;;;;;;;8.07;1.70;;;;;;;26.73;25.68;98555.03;5060636;28;20043;-74
2022/10/03 08:48:07;;;;;;;10.65;1.27;;;;;;;26.70;27.09;98561.66;5049012;28;20432;-68
2022/10/03 08:51:04;;;;;;;15.38;2.63;;;;;;;26.77;25.70;98558.06;5058656;28;20036;-69
2022/10/03 08:53:35;;;;;;;8.95;2.00;;;;;;;26.89;25.50;98548.22;5042378;28;20024;-69
2022/10/03 08:56:34;;;;;;;8.27;1.95;;;;;;;26.99;25.63;98547.66;5040785;28;20037;-71
2022/10/03 08:59:37;;;;;;;10.65;2.10;;;;;;;27.03;25.81;98549.66;5051970;28;20032;-68
2022/10/03 09:02:35;;;;;;;7.22;2.03;;;;;;;27.09;26.65;98561.34;5041411;28;20029;-70
2022/10/03 09:05:06;;;;;;;;;;;;;;;27.11;25.56;98559.25;5034137;28;20167;-75
2022/10/03 09:07:43;;;;;;;8.38;1.80;;;;;;;27.01;26.28;98550.94;5055819;28;19916;-68
2022/10/03 09:10:47;;;;;;;7.47;1.92;;;;;;;27.00;26.08;98549.31;5044149;28;20447;-71
2022/10/03 09:13:48;;;;;;;4.07;1.52;;;;;;;27.00;26.08;98554.66;5035653;28;20534;-69
2022/10/03 09:16:33;;;;;;;4.32;1.75;;;;;;;26.94;26.49;98558.25;5037950;28;20048;-78
2022/10/03 09:19:29;;;;;;;3.72;1.75;;;;;;;26.88;25.58;98558.13;5041242;28;20126;-77
2022/10/03 09:21:54;;;;;;;5.70;1.90;;;;;;;26.67;25.67;98561.28;5039194;28;20044;-79
2022/10/03 09:24:35;;;;;;;6.68;1.55;;;;;;;26.38;26.41;98557.50;5063797;28;20041;-84
2022/10/03 09:27:19;;;;;;;6.13;1.70;;;;;;;26.07;27.79;98561.97;5071165;28;20060;-84
2022/10/03 09:30:13;;;;;;;14.13;2.10;;;;;;;25.89;29.37;98562.75;5066619;28;20086;-75
2022/10/03 09:32:50;;;;;;;7.90;2.20;;;;;;;25.72;29.55;98555.28;5059133;28;20033;-73
2022/10/03 09:35:37;;;;;;;7.90;1.95;;;;;;;25.57;29.94;98563.63;5066613;28;20024;-73
2022/10/03 09:38:24;;;;;;;5.85;2.22;;;;;;;25.34;30.17;98561.56;5059293;28;20029;-73
2022/10/03 09:41:27;;;;;;;8.48;2.17;;;;;;;25.23;30.44;98572.91;5063877;28;20021;-73
2022/10/03 09:44:06;;;;;;;7.57;2.00;;;;;;;25.04;30.68;98566.66;5062664;28;20484;-72
2022/10/03 09:46:40;;;;;;;6.10;1.63;;;;;;;24.88;30.64;98571.47;5069185;28;20507;-82
2022/10/03 09:49:27;;;;;;;4.55;1.75;;;;;;;24.81;30.85;98581.38;5065939;28;20083;-80
2022/10/03 09:52:21;;;;;;;11.32;1.60;;;;;;;24.71;31.65;98581.81;5064271;28;20029;-79
2022/10/03 09:55:10;;;;;;;4.70;1.60;;;;;;;24.64;32.49;98593.56;5063237;28;20033;-75
2022/10/03 09:58:24;;;;;;;10.57;1.70;;;;;;;24.56;32.94;98589.25;5063385;28;20071;-79
2022/10/03 10:01:10;;;;;;;5.25;1.40;;;;;;;24.52;34.28;98593.38;5050728;28;20076;-71
2022/10/03 10:03:44;;;;;;;8.35;1.42;;;;;;;24.51;35.14;98594.38;5060655;28;20025;-72
2022/10/03 10:06:13;;;;;;;6.40;1.35;;;;;;;24.49;35.33;98586.59;5045015;28;20035;-69
2022/10/03 10:08:38;;;;;;;10.23;1.50;;;;;;;24.54;35.46;98588.63;5043383;28;20029;-79
2022/10/03 10:11:28;;;;;;;4.47;1.35;;;;;;;24.51;35.58;98584.56;5045282;28;20589;-81
2022/10/03 10:14:02;;;;;;;11.20;1.40;;;;;;;24.54;35.42;98585.97;5047487;28;20097;-80
2022/10/03 10:16:52;;;;;;;4.70;1.13;;;;;;;24.55;35.78;98587.59;5047353;28;20044;-83
2022/10/03 10:19:45;;;;;;;5.13;1.30;;;;;;;24.53;36.39;98577.16;5042131;28;20430;-76
2022/10/03 10:22:32;;;;;;;6.53;1.35;;;;;;;24.59;36.55;98578.19;5041953;28;20071;-73
2022/10/03 10:25:30;;;;;;;4.78;1.90;;;;;;;24.73;36.62;98573.59;5059727;28;20205;-78
2022/10/03 10:28:30;;;;;;;4.28;1.50;;;;;;;24.87;36.73;98563.66;5043119;28;20090;-75
2022/10/03 10:31:33;;;;;;;4.90;1.40;;;;;;;25.12;36.31;98569.06;5011825;28;20477;-77
2022/10/03 10:34:20;;;;;;;3.85;1.38;;;;;;;25.40;35.61;98559.88;5057161;28;20043;-78
2022/10/03 10:37:09;;;;;;;5.28;1.45;;;;;;;25.61;35.18;98572.03;5046708;28;20459;-79
2022/10/03 10:39:57;;;;;;;3.75;1.50;;;;;;;25.76;35.24;98575.19;5050195;28;20028;-78
2022/10/03 10:43:00;;;;;;;6.82;1.40;;;;;;;25.86;35.15;98566.66;5045426;28;20504;-77
2022/10/03 10:45:42;;;;;;;3.03;1.42;;;;;;;25.83;34.96;98559.88;5061931;28;20017;-78
2022/10/03 10:48:26;;;;;;;2.83;1.15;;;;;;;25.79;35.49;98569.41;5045800;28;20024;-78
2022/10/03 10:51:26;;;;;;;4.25;1.63;;;;;;;25.71;35.79;98574.19;5060879;28;20479;-77
2022/10/03 10:53:52;;;;;;;2.95;1.15;;;;;;;25.61;36.03;98561.34;5061025;28;20107;-75
2022/10/03 10:57:01;;;;;;;5.15;1.58;;;;;;;25.38;36.23;98552.06;5058670;28;20132;-81
2022/10/03 10:59:32;;;;;;;4.32;1.40;;;;;;;25.41;36.17;98569.50;5041523;28;20116;-76
2022/10/03 11:02:09;;;;;;;5.10;1.23;;;;;;;25.36;35.99;98545.31;5051711;28;20066;-78
2022/10/03 11:05:12;;;;;;;2.88;1.40;;;;;;;25.41;36.14;98543.63;5051315;28;20048;-70
2022/10/03 11:08:03;;;;;;;3.15;1.38;;;;;;;25.42;36.30;98539.91;5055282;28;20041;-68
2022/10/03 11:10:47;;;;;;;5.82;1.40;;;;;;;25.50;36.73;98546.81;5060228;28;20049;-69
2022/10/03 11:13:40;;;;;;;5.32;1.27;;;;;;;25.72;37.05;98530.41;5046001;28;20488;-69
2022/10/03 11:16:27;;;;;;;3.67;1.25;;;;;;;25.92;36.81;98535.53;5019472;28;1204528;-72
2022/10/03 11:19:20;;;;;;;2.93;1.50;;;;;;;26.16;36.04;98541.91;5062321;28;20041;-70
2022/10/03 11:21:58;;;;;;;4.72;1.50;;;;;;;26.24;35.37;98527.41;5061747;28;20491;-73
2022/10/03 11:24:32;;;;;;;4.00;1.35;;;;;;;26.35;35.20;98532.81;5061205;28;20028;-72
2022/10/03 11:27:45;;;;;;;3.85;1.30;;;;;;;26.59;34.39;98532.13;5062262;28;20396;-70
2022/10/03 11:30:48;;;;;;;3.53;1.17;;;;;;;26.52;34.46;98533.03;5041184;28;20025;-69
2022/10/03 11:33:42;;;;;;;3.78;1.67;;;;;;;26.51;34.32;98538.59;5039982;28;20029;-70
2022/10/03 11:36:32;;;;;;;7.30;1.27;;;;;;;26.36;34.10;98528.28;5055452;28;20692;-71
2022/10/03 11:39:10;;;;;;;5.38;1.13;;;;;;;26.34;33.87;98525.03;5059497;28;20059;-71
2022/10/03 11:42:01;;;;;;;5.22;1.23;;;;;;;26.36;34.20;98529.13;5029156;28;20041;-70
2022/10/03 11:44:32;;;;;;;11.90;1.25;;;;;;;26.35;33.88;98524.00;5040758;28;20044;-69
2022/10/03 11:47:21;;;;;;;9.15;1.10;;;;;;;26.24;34.03;98517.53;5058705;28;20021;-71
2022/10/03 11:50:15;;;;;;;7.93;1.30;;;;;;;26.29;34.34;98519.53;5060187;28;20029;-67
2022/10/03 11:53:10;;;;;;;4.85;0.98;;;;;;;26.39;33.88;98524.34;5043506;28;20039;-68
2022/10/03 11:56:11;;;;;;;2.67;1.05;;;;;;;26.42;33.47;98522.03;5042307;28;20064;-69
2022/10/03 11:59:08;;;;;;;1.55;0.70;;;;;;;26.45;33.31;98526.94;5027340;28;20095;-68
2022/10/03 12:01:55;;;;;;;2.15;0.80;;;;;;;26.53;33.42;98520.47;5034914;28;20119;-68
2022/10/03 12:04:30;;;;;;;1.95;0.70;;;;;;;26.66;32.95;98527.53;5058744;28;20032;-70
2022/10/03 12:09:56;;;;;;;3.38;0.80;;;;;;;26.70;33.27;98512.66;5055538;28;20028;-66
2022/10/03 12:12:37;;;;;;;4.90;0.90;;;;;;;26.74;32.99;98526.38;5059637;28;20029;-67
2022/10/03 12:15:23;;;;;;;3.78;0.80;;;;;;;26.71;32.75;98533.03;5060304;28;20090;-66
2022/10/03 12:18:04;;;;;;;3.80;1.15;;;;;;;26.69;33.09;98537.78;5060904;28;20123;-67
2022/10/03 12:21:03;;;;;;;5.57;1.05;;;;;;;26.60;33.09;98542.63;5044961;28;20441;-66
2022/10/03 12:23:57;;;;;;;4.25;0.75;;;;;;;26.55;33.34;98545.13;5058698;28;20036;-65
2022/10/03 12:26:31;;;;;;;4.80;0.88;;;;;;;26.44;33.49;98549.41;5061842;28;20471;-68
2022/10/03 12:28:57;;;;;;;2.92;0.95;;;;;;;26.38;33.55;98546.78;5060120;28;20469;-67
2022/10/03 12:31:28;;;;;;;2.80;0.70;;;;;;;26.36;33.83;98549.69;5042657;28;20021;-65
2022/10/03 12:34:29;;;;;;;3.00;0.90;;;;;;;26.28;33.66;98550.00;5060209;28;20099;-68
2022/10/03 12:37:13;;;;;;;4.88;1.00;;;;;;;26.31;33.59;98536.16;5060468;28;20021;-67
2022/10/03 12:39:47;;;;;;;2.53;0.75;;;;;;;26.25;33.28;98529.03;5061504;28;20089;-66
2022/10/03 12:42:29;;;;;;;1.65;0.70;;;;;;;26.15;33.50;98517.00;5051394;28;20028;-65
2022/10/03 12:45:21;;;;;;;3.58;0.82;;;;;;;26.02;33.59;98519.03;5045457;28;20492;-66
2022/10/03 12:47:59;;;;;;;3.13;0.88;;;;;;;25.89;33.22;98522.63;5044535;28;20037;-65
2022/10/03 12:50:42;;;;;;;2.97;0.80;;;;;;;25.77;33.36;98525.19;5058692;28;20041;-64
2022/10/03 12:53:25;;;;;;;2.10;0.90;;;;;;;25.64;33.55;98518.13;5041774;28;20035;-66
2022/10/03 12:56:09;;;;;;;2.42;0.90;;;;;;;25.55;33.83;98522.13;5043093;28;20171;-67
2022/10/03 12:58:45;;;;;;;1.02;0.60;;;;;;;25.49;33.33;98509.63;5060615;28;20091;-68
2022/10/03 13:01:41;;;;;;;1.98;0.68;;;;;;;25.52;33.16;98515.34;5059702;28;20075;-69
2022/10/03 13:04:33;;;;;;;3.63;0.75;;;;;;;25.70;33.56;98511.91;5058550;28;20036;-71
2022/10/03 13:07:16;;;;;;;3.92;0.80;;;;;;;25.73;33.57;98513.31;5058243;28;20137;-70